Time;durP1;ratioP1;P1;durP2;ratioP2;P2;SDS_P1;SDS_P2;PMS_P1;PMS_P2;Temp;Humidity;BMP_temperature;BMP_pressure;BME280_temperature;BME280_humidity;BME280_pressure;Samples;Min_cycle;Max_cycle;Signal;HPM_P1;HPM_P2
2023/10/28 00:00:17;;;;;;;5.07;1.70;;;;;;;19.72;57.01;98292.23;124615;1105;101849;-78
2023/10/28 00:03:05;;;;;;;4.50;1.77;;;;;;;19.72;57.05;98299.36;124678;1105;120623;-79
2023/10/28 00:05:34;;;;;;;3.33;1.47;;;;;;;19.71;57.85;98305.59;124549;1102;104252;-78
2023/10/28 00:08:03;;;;;;;4.55;2.00;;;;;;;19.71;57.47;98306.48;124745;1102;104129;-80
2023/10/28 00:10:34;;;;;;;4.53;1.67;;;;;;;19.70;57.79;98304.73;124595;1102;102054;-79
2023/10/28 00:13:04;;;;;;;2.00;1.70;;;;;;;19.68;57.14;98311.91;124622;1102;102228;-79
2023/10/28 00:15:33;;;;;;;3.23;1.60;;;;;;;19.66;57.52;98302.23;124651;1102;102284;-79
2023/10/28 00:18:02;;;;;;;5.83;1.50;;;;;;;19.66;57.51;98305.75;124536;1102;101932;-78
2023/10/28 00:20:32;;;;;;;3.03;1.70;;;;;;;19.64;57.92;98294.31;124631;1102;104227;-79
2023/10/28 00:23:03;;;;;;;4.17;1.50;;;;;;;19.62;56.72;98298.83;124546;1102;102099;-78
2023/10/28 00:25:31;;;;;;;2.63;1.50;;;;;;;19.62;56.61;98292.63;124634;1102;104341;-79
2023/10/28 00:28:01;;;;;;;3.30;1.47;;;;;;;19.60;57.21;98291.82;124551;1102;104276;-79
2023/10/28 00:30:29;;;;;;;3.23;1.60;;;;;;;19.60;57.18;98297.14;124571;1102;102019;-79
2023/10/28 00:33:00;;;;;;;6.40;1.40;;;;;;;19.58;56.69;98299.86;124607;1105;101844;-78
2023/10/28 00:35:29;;;;;;;3.80;1.40;;;;;;;19.57;57.49;98303.42;124668;1102;104316;-79
2023/10/28 00:37:58;;;;;;;2.87;1.60;;;;;;;19.55;56.38;98308.80;124604;1102;102093;-78
2023/10/28 00:40:28;;;;;;;2.97;1.40;;;;;;;19.54;57.00;98315.06;124530;1102;104217;-78
2023/10/28 00:42:58;;;;;;;2.83;1.20;;;;;;;19.53;56.44;98320.44;124476;1105;102075;-78
2023/10/28 00:45:27;;;;;;;3.53;1.40;;;;;;;19.52;55.97;98318.69;124563;1102;102090;-79
2023/10/28 00:47:57;;;;;;;1.53;1.03;;;;;;;19.50;56.54;98309.91;124559;1102;104188;-79
2023/10/28 00:50:29;;;;;;;4.77;1.27;;;;;;;19.49;56.99;98305.50;124710;1102;104262;-79
2023/10/28 00:53:00;;;;;;;3.47;1.30;;;;;;;19.46;56.45;98297.63;124648;1102;104251;-79
2023/10/28 00:55:30;;;;;;;2.43;1.03;;;;;;;19.44;56.87;98299.48;124607;1102;104258;-79
2023/10/28 00:57:59;;;;;;;1.17;0.93;;;;;;;19.42;55.88;98314.64;124620;1102;104073;-79
2023/10/28 01:00:29;;;;;;;1.03;0.93;;;;;;;19.39;55.78;98313.80;124666;1102;101794;-79
2023/10/28 01:02:57;;;;;;;3.87;1.37;;;;;;;19.38;56.70;98322.73;124563;1102;101910;-80
2023/10/28 01:05:26;;;;;;;2.03;1.03;;;;;;;19.36;56.02;98329.86;124699;1105;102118;-78
2023/10/28 01:07:55;;;;;;;3.63;1.20;;;;;;;19.33;55.94;98340.61;124653;1102;104405;-79
2023/10/28 01:10:29;;;;;;;1.20;0.90;;;;;;;19.32;56.61;98352.19;125172;1102;101997;-79
2023/10/28 01:12:58;;;;;;;5.10;1.00;;;;;;;19.31;56.65;98350.44;125875;1102;102032;-79
2023/10/28 01:15:27;;;;;;;2.03;1.20;;;;;;;19.29;56.15;98354.06;125788;1103;101796;-79
2023/10/28 01:17:57;;;;;;;2.80;1.00;;;;;;;19.26;56.26;98356.82;125520;1102;103365;-79
2023/10/28 01:20:26;;;;;;;1.13;0.83;;;;;;;19.25;55.70;98358.62;124713;1102;104265;-79
2023/10/28 01:22:54;;;;;;;2.00;0.90;;;;;;;19.22;56.02;98364.04;124648;1102;104389;-78
2023/10/28 01:25:23;;;;;;;1.97;0.80;;;;;;;19.20;55.56;98368.55;124654;1102;102050;-79
2023/10/28 01:27:53;;;;;;;2.27;0.90;;;;;;;19.17;56.09;98377.48;124660;1102;104185;-78
2023/10/28 01:30:21;;;;;;;4.03;1.00;;;;;;;19.16;56.20;98383.71;124620;1102;104243;-79
2023/10/28 01:32:51;;;;;;;1.47;0.90;;;;;;;19.13;55.92;98389.12;124579;1102;102524;-79
2023/10/28 01:35:20;;;;;;;3.67;1.00;;;;;;;19.11;55.66;98396.30;124785;1102;102504;-79
2023/10/28 01:37:49;;;;;;;0.80;0.80;;;;;;;19.08;55.65;98395.53;124640;1102;102003;-78
2023/10/28 01:40:19;;;;;;;2.73;0.97;;;;;;;19.06;56.00;98400.02;124579;1102;102028;-79
2023/10/28 01:42:48;;;;;;;2.15;0.80;;;;;;;19.03;56.22;98396.55;124552;1102;102508;-79
2023/10/28 01:45:17;;;;;;;1.10;0.70;;;;;;;18.99;56.04;98400.20;124626;1102;101957;-80
2023/10/28 01:47:46;;;;;;;1.80;0.70;;;;;;;18.95;55.50;98403.91;124680;1100;104227;-80
2023/10/28 01:50:16;;;;;;;1.43;0.90;;;;;;;18.93;55.97;98407.52;124606;1102;102704;-79
2023/10/28 01:52:45;;;;;;;1.90;0.60;;;;;;;18.90;55.65;98423.55;124540;1102;104237;-79
2023/10/28 01:55:14;;;;;;;1.60;0.73;;;;;;;18.87;55.50;98432.52;124627;1102;101977;-79
2023/10/28 01:57:44;;;;;;;1.70;0.80;;;;;;;18.84;56.05;98440.55;124567;1102;102022;-79
2023/10/28 02:00:15;;;;;;;1.77;0.93;;;;;;;18.81;55.58;98422.91;124673;1101;102295;-81
2023/10/28 02:02:45;;;;;;;1.73;0.80;;;;;;;18.77;56.17;98417.73;124686;1102;104104;-81
2023/10/28 02:05:15;;;;;;;1.95;0.90;;;;;;;18.73;55.55;98437.33;124620;1102;104178;-80
2023/10/28 02:07:44;;;;;;;2.07;0.87;;;;;;;18.69;55.50;98448.05;124523;1102;104223;-79
2023/10/28 02:10:12;;;;;;;1.73;0.90;;;;;;;18.67;55.55;98462.31;124613;1104;104182;-78
2023/10/28 02:12:41;;;;;;;1.40;0.80;;;;;;;18.64;55.48;98462.40;124588;1102;102042;-81
2023/10/28 02:15:11;;;;;;;3.10;0.90;;;;;;;18.61;56.03;98443.89;124506;1102;104277;-80
2023/10/28 02:17:39;;;;;;;1.10;0.77;;;;;;;18.58;55.75;98443.98;124539;1102;104200;-79
2023/10/28 02:20:10;;;;;;;1.17;0.90;;;;;;;18.55;55.67;98466.18;124589;1102;102617;-78
2023/10/28 02:22:39;;;;;;;1.07;0.97;;;;;;;18.54;55.72;98479.51;124640;1105;104147;-79
2023/10/28 02:25:09;;;;;;;1.07;0.90;;;;;;;18.51;55.78;98483.11;124552;1102;101809;-79
2023/10/28 02:27:38;;;;;;;3.03;0.90;;;;;;;18.51;55.42;98496.39;124610;1102;104195;-77
2023/10/28 02:30:10;;;;;;;1.57;1.00;;;;;;;18.49;55.42;98500.88;124559;1102;101878;-78
2023/10/28 02:32:38;;;;;;;2.10;0.80;;;;;;;18.48;55.09;98505.34;124524;1102;102116;-77
2023/10/28 02:35:09;;;;;;;2.93;0.83;;;;;;;18.48;55.46;98512.41;124449;1102;104322;-79
2023/10/28 02:37:39;;;;;;;2.90;0.80;;;;;;;18.47;55.09;98521.31;124637;1102;102022;-78
2023/10/28 02:40:10;;;;;;;1.83;0.60;;;;;;;18.46;55.39;98519.56;124529;1102;101842;-78
2023/10/28 02:42:38;;;;;;;1.33;0.70;;;;;;;18.44;55.33;98524.05;124597;1102;101821;-78
2023/10/28 02:45:09;;;;;;;0.83;0.60;;;;;;;18.43;54.77;98514.33;124527;1103;102518;-79
2023/10/28 02:47:38;;;;;;;3.43;0.90;;;;;;;18.41;53.83;98525.00;124476;1102;104226;-78
2023/10/28 02:50:08;;;;;;;1.33;0.60;;;;;;;18.45;53.84;98525.77;124570;1102;104284;-79
2023/10/28 02:52:37;;;;;;;0.47;0.47;;;;;;;18.44;53.92;98526.70;124691;1102;101881;-78
2023/10/28 02:55:07;;;;;;;1.63;0.80;;;;;;;18.44;53.94;98527.56;124638;1102;102058;-78
2023/10/28 02:57:38;;;;;;;1.70;0.70;;;;;;;18.43;53.44;98535.58;124648;1102;104188;-80
2023/10/28 03:00:11;;;;;;;1.50;0.50;;;;;;;18.42;53.13;98534.72;124658;1102;104256;-79
2023/10/28 03:02:40;;;;;;;0.82;0.50;;;;;;;18.43;52.74;98540.89;124564;1105;104175;-79
2023/10/28 03:05:10;;;;;;;0.83;0.70;;;;;;;18.42;52.79;98540.02;124605;1105;104256;-79
2023/10/28 03:07:39;;;;;;;0.83;0.50;;;;;;;18.41;52.16;98548.89;124660;1105;104211;-78
2023/10/28 03:10:10;;;;;;;1.37;0.70;;;;;;;18.41;52.23;98558.66;124656;1105;104236;-80
2023/10/28 03:12:39;;;;;;;1.95;0.50;;;;;;;18.40;51.45;98562.21;124528;1105;101974;-80
2023/10/28 03:15:10;;;;;;;4.43;0.50;;;;;;;18.39;51.48;98564.01;124599;1105;101948;-79
2023/10/28 03:17:39;;;;;;;2.80;0.70;;;;;;;18.39;51.37;98571.11;124661;1105;102029;-79
2023/10/28 03:20:11;;;;;;;2.37;0.60;;;;;;;18.37;50.72;98579.12;124678;1105;104175;-79
2023/10/28 03:22:40;;;;;;;0.70;0.60;;;;;;;18.36;49.97;98577.36;124548;1105;101932;-79
2023/10/28 03:25:10;;;;;;;4.07;0.77;;;;;;;18.37;49.54;98581.77;124534;1105;101929;-79
2023/10/28 03:27:39;;;;;;;2.00;0.50;;;;;;;18.37;49.69;98589.73;124570;1105;104361;-79
2023/10/28 03:30:10;;;;;;;2.93;0.80;;;;;;;18.38;49.17;98577.33;124643;1105;104185;-79
2023/10/28 03:32:39;;;;;;;0.80;0.77;;;;;;;18.38;49.40;98593.25;124544;1105;104175;-79
2023/10/28 03:35:08;;;;;;;2.20;0.80;;;;;;;18.36;49.42;98600.40;124483;1105;104185;-79
2023/10/28 03:37:37;;;;;;;5.07;1.37;;;;;;;18.32;49.36;98618.17;124503;1105;104073;-79
2023/10/28 03:40:09;;;;;;;0.80;0.63;;;;;;;18.29;49.49;98623.56;124544;1105;102067;-79
2023/10/28 03:42:38;;;;;;;1.23;0.60;;;;;;;18.25;49.06;98627.22;124515;1105;101820;-79
2023/10/28 03:45:08;;;;;;;0.83;0.63;;;;;;;18.21;48.92;98630.86;124473;1105;104240;-77
2023/10/28 03:47:38;;;;;;;3.17;0.80;;;;;;;18.18;48.39;98630.94;124548;1105;101932;-79
2023/10/28 03:50:07;;;;;;;3.90;0.60;;;;;;;18.14;48.54;98630.15;124555;1102;102029;-79
2023/10/28 03:52:36;;;;;;;0.90;0.77;;;;;;;18.12;48.34;98643.45;124502;1105;102093;-78
2023/10/28 03:55:07;;;;;;;0.63;0.60;;;;;;;18.08;48.51;98646.22;124576;1106;104268;-78
2023/10/28 03:57:36;;;;;;;2.43;0.80;;;;;;;18.05;48.39;98640.98;124575;1103;102103;-78
2023/10/28 04:00:11;;;;;;;1.57;0.67;;;;;;;18.02;48.52;98652.54;124559;1105;101961;-78
2023/10/28 04:02:43;;;;;;;1.23;1.13;;;;;;;17.98;47.98;98636.73;124577;1102;104104;-79
2023/10/28 04:05:12;;;;;;;2.07;0.90;;;;;;;17.94;47.91;98643.90;124528;1102;104086;-79
2023/10/28 04:07:40;;;;;;;2.20;0.80;;;;;;;17.90;47.86;98643.11;124636;1104;102106;-79
2023/10/28 04:10:10;;;;;;;3.60;1.00;;;;;;;17.86;47.96;98645.84;124590;1105;104188;-79
2023/10/28 04:12:39;;;;;;;1.40;0.80;;;;;;;17.85;47.97;98649.39;124460;1105;102096;-79
2023/10/28 04:15:12;;;;;;;1.57;0.93;;;;;;;17.82;47.73;98644.16;124435;1105;104210;-78
2023/10/28 04:17:41;;;;;;;1.35;0.70;;;;;;;17.79;47.67;98640.67;124536;1104;104136;-78
2023/10/28 04:20:11;;;;;;;1.40;0.70;;;;;;;17.77;47.81;98652.22;124522;1105;104322;-79
2023/10/28 04:22:39;;;;;;;0.90;0.80;;;;;;;17.72;47.71;98643.50;124618;1105;101844;-79
2023/10/28 04:25:09;;;;;;;2.70;0.60;;;;;;;17.70;47.49;98655.91;124569;1105;104236;-80
2023/10/28 04:27:38;;;;;;;3.07;0.70;;;;;;;17.67;47.50;98651.56;124546;1105;104349;-78
2023/10/28 04:30:10;;;;;;;1.77;0.80;;;;;;;17.65;47.52;98657.80;124591;1105;102616;-79
2023/10/28 04:32:39;;;;;;;1.90;0.50;;;;;;;17.60;47.61;98661.41;124442;1105;101839;-79
2023/10/28 04:35:10;;;;;;;0.80;0.63;;;;;;;17.58;47.26;98673.84;124647;1105;104300;-79
2023/10/28 04:37:38;;;;;;;0.63;0.50;;;;;;;17.56;47.49;98669.47;124536;1104;104227;-79
2023/10/28 04:40:11;;;;;;;1.95;0.60;;;;;;;17.55;47.36;98678.36;124590;1102;102186;-79
2023/10/28 04:42:39;;;;;;;3.67;1.17;;;;;;;17.52;47.57;98694.33;124617;1105;102132;-79
2023/10/28 04:45:10;;;;;;;1.23;0.83;;;;;;;17.48;47.08;98696.16;124567;1102;102328;-79
2023/10/28 04:47:38;;;;;;;1.33;0.97;;;;;;;17.44;46.85;98707.75;124597;1105;102024;-79
2023/10/28 04:50:08;;;;;;;1.10;0.87;;;;;;;17.38;46.47;98721.13;124535;1105;102493;-79
2023/10/28 04:52:37;;;;;;;3.93;0.73;;;;;;;17.29;46.10;98714.23;124524;1102;102208;-79
2023/10/28 04:55:07;;;;;;;1.20;0.50;;;;;;;17.24;46.74;98718.76;124617;1102;101952;-79
2023/10/28 04:57:36;;;;;;;1.63;0.90;;;;;;;17.22;46.83;98726.73;125369;1102;102029;-79
2023/10/28 05:00:07;;;;;;;1.73;0.63;;;;;;;17.21;47.11;98732.94;124564;1102;101840;-78
2023/10/28 05:02:36;;;;;;;1.27;0.70;;;;;;;17.19;46.84;98741.84;124638;1102;102238;-80
2023/10/28 05:05:08;;;;;;;1.20;0.65;;;;;;;17.19;46.91;98747.14;124682;1102;104252;-80
2023/10/28 05:07:37;;;;;;;0.77;0.60;;;;;;;17.18;46.81;98758.63;124619;1102;104358;-79
2023/10/28 05:10:09;;;;;;;0.60;0.60;;;;;;;17.19;46.95;98760.39;124668;1102;101841;-79
2023/10/28 05:12:39;;;;;;;2.13;0.77;;;;;;;17.20;46.75;98764.77;124662;1102;104326;-80
2023/10/28 05:15:09;;;;;;;0.73;0.73;;;;;;;17.20;46.20;98784.22;124656;1105;104411;-80
2023/10/28 05:17:37;;;;;;;1.77;0.80;;;;;;;17.20;46.35;98786.86;124617;1103;102108;-79
2023/10/28 05:20:08;;;;;;;3.07;1.37;;;;;;;17.20;46.68;98800.11;124659;1105;104219;-79
2023/10/28 05:22:39;;;;;;;0.87;0.70;;;;;;;17.20;46.41;98794.81;124649;1105;101798;-79
2023/10/28 05:25:09;;;;;;;2.40;0.80;;;;;;;17.19;46.38;98808.09;124538;1105;104249;-79
2023/10/28 05:27:37;;;;;;;0.87;0.70;;;;;;;17.19;46.26;98814.26;124528;1105;104185;-80
2023/10/28 05:30:10;;;;;;;1.63;0.87;;;;;;;17.22;46.15;98821.30;124561;1103;104259;-79
2023/10/28 05:32:40;;;;;;;2.15;0.65;;;;;;;17.24;46.20;98838.03;124695;1105;104236;-80
2023/10/28 05:35:11;;;;;;;1.73;1.10;;;;;;;17.25;46.14;98839.80;124648;1105;101812;-81
2023/10/28 05:37:39;;;;;;;3.53;0.90;;;;;;;17.27;46.06;98847.72;124725;1102;102126;-81
2023/10/28 05:40:10;;;;;;;3.70;0.90;;;;;;;17.31;46.29;98844.09;124619;1102;104176;-81
2023/10/28 05:42:39;;;;;;;1.20;0.80;;;;;;;17.33;45.69;98853.77;124692;1102;102022;-80
2023/10/28 05:45:13;;;;;;;1.23;0.90;;;;;;;17.38;45.95;98858.99;124657;1102;102322;-81
2023/10/28 05:47:42;;;;;;;2.57;0.83;;;;;;;17.42;45.50;98861.56;124675;1102;104639;-81
2023/10/28 05:50:11;;;;;;;1.73;1.00;;;;;;;17.49;45.70;98864.96;124610;1101;104185;-80
2023/10/28 05:52:40;;;;;;;1.80;0.70;;;;;;;17.55;45.73;98859.55;124733;1102;101962;-81
2023/10/28 05:55:12;;;;;;;2.07;0.90;;;;;;;17.60;45.11;98859.46;124641;1102;102162;-81
2023/10/28 05:57:41;;;;;;;2.80;0.90;;;;;;;17.66;45.27;98869.09;124739;1102;104175;-79
2023/10/28 06:00:13;;;;;;;0.90;0.70;;;;;;;17.73;45.10;98876.00;124680;1102;110881;-80
2023/10/28 06:02:42;;;;;;;1.87;1.17;;;;;;;17.78;45.07;98866.20;124676;1102;104211;-80
2023/10/28 06:05:11;;;;;;;1.50;0.93;;;;;;;17.82;45.01;98889.09;124759;1102;104254;-78
2023/10/28 06:07:39;;;;;;;1.50;0.80;;;;;;;17.87;45.15;98892.55;124501;1102;104176;-77
2023/10/28 06:10:11;;;;;;;2.90;0.83;;;;;;;17.93;44.86;98903.05;124405;1102;102038;-78
2023/10/28 06:12:39;;;;;;;3.77;0.93;;;;;;;17.99;44.99;98899.41;124536;1102;104332;-80
2023/10/28 06:15:11;;;;;;;1.23;0.80;;;;;;;18.04;44.90;98904.63;124568;1102;104227;-78
2023/10/28 06:17:40;;;;;;;4.50;1.00;;;;;;;18.10;44.71;98912.46;124477;1102;104201;-79
2023/10/28 06:20:11;;;;;;;1.40;0.90;;;;;;;18.15;44.65;98913.23;124452;1103;104174;-78
2023/10/28 06:22:40;;;;;;;1.60;1.27;;;;;;;18.20;45.09;98911.37;124577;1102;104264;-79
2023/10/28 06:25:08;;;;;;;2.77;0.97;;;;;;;18.25;44.76;98925.42;124520;1103;104233;-79
2023/10/28 06:27:37;;;;;;;1.07;0.90;;;;;;;18.33;44.25;98938.54;124518;1102;104175;-77
2023/10/28 06:30:11;;;;;;;1.95;0.60;;;;;;;18.41;44.39;98949.00;124497;1102;104195;-78
2023/10/28 06:32:40;;;;;;;1.20;0.70;;;;;;;18.45;44.33;98943.59;124447;1102;102271;-78
2023/10/28 06:35:10;;;;;;;1.17;1.07;;;;;;;18.52;43.96;98954.95;124376;1102;104089;-78
2023/10/28 06:37:39;;;;;;;1.03;0.73;;;;;;;18.59;44.13;98961.00;124458;1102;104230;-77
2023/10/28 06:40:10;;;;;;;1.53;0.70;;;;;;;18.64;43.79;98962.66;124378;1102;102646;-77
2023/10/28 06:42:38;;;;;;;3.17;0.70;;;;;;;18.69;44.04;98966.08;124400;1102;101923;-79
2023/10/28 06:45:09;;;;;;;0.70;0.70;;;;;;;18.74;43.52;98967.77;124302;1102;104175;-78
2023/10/28 06:47:38;;;;;;;1.77;0.80;;;;;;;18.78;43.23;98980.09;124473;1102;102106;-78
2023/10/28 06:50:09;;;;;;;0.60;0.60;;;;;;;18.81;43.46;98983.55;124399;1102;104317;-77
2023/10/28 06:52:39;;;;;;;0.70;0.70;;;;;;;18.85;43.66;98984.38;124459;1102;104255;-79
2023/10/28 06:55:12;;;;;;;2.60;0.80;;;;;;;18.86;42.95;99004.73;124492;1102;104253;-78
2023/10/28 06:57:41;;;;;;;3.83;0.90;;;;;;;18.87;42.25;99003.84;124443;1102;104243;-78
2023/10/28 07:00:13;;;;;;;2.33;0.80;;;;;;;18.85;42.68;99000.33;124476;1102;104118;-77
2023/10/28 07:02:43;;;;;;;0.97;0.90;;;;;;;18.86;42.44;99008.27;124535;1102;102163;-78
2023/10/28 07:05:14;;;;;;;1.80;0.87;;;;;;;18.88;42.43;99012.68;124402;1102;104172;-78
2023/10/28 07:07:43;;;;;;;3.13;0.70;;;;;;;18.91;41.33;99026.77;124525;1102;104211;-79
2023/10/28 07:10:14;;;;;;;1.00;0.90;;;;;;;18.91;41.47;99021.45;124649;1102;102560;-79
2023/10/28 07:12:43;;;;;;;2.25;1.10;;;;;;;18.95;41.52;99040.89;124596;1105;102039;-80
2023/10/28 07:15:12;;;;;;;3.47;0.70;;;;;;;18.97;41.65;99050.55;125796;1102;102160;-78
2023/10/28 07:17:43;;;;;;;1.00;0.80;;;;;;;18.99;40.52;99074.44;125893;1102;104195;-80
2023/10/28 07:20:12;;;;;;;1.90;1.03;;;;;;;18.98;41.44;99065.60;125840;1102;102086;-78
2023/10/28 07:22:41;;;;;;;0.97;0.80;;;;;;;19.02;40.92;99064.61;125057;1102;101942;-80
2023/10/28 07:25:10;;;;;;;2.23;0.80;;;;;;;19.04;41.53;99068.12;124901;1102;102299;-81
2023/10/28 07:27:39;;;;;;;1.40;0.80;;;;;;;19.08;40.85;99070.72;124664;1102;104185;-80
2023/10/28 07:30:11;;;;;;;0.70;0.60;;;;;;;19.10;40.74;99072.42;124673;1101;101951;-79
2023/10/28 07:32:40;;;;;;;1.40;0.93;;;;;;;19.14;40.93;99081.23;124517;1102;101975;-78
2023/10/28 07:35:10;;;;;;;4.77;1.10;;;;;;;19.16;41.13;99074.94;124559;1102;104335;-80
2023/10/28 07:37:39;;;;;;;2.73;0.90;;;;;;;19.24;41.19;99093.39;124604;1105;104181;-81
2023/10/28 07:40:12;;;;;;;1.57;1.03;;;;;;;19.26;40.39;99099.57;124577;1102;104182;-79
2023/10/28 07:42:40;;;;;;;2.35;0.75;;;;;;;19.31;41.22;99100.33;124667;1102;102022;-79
2023/10/28 07:45:10;;;;;;;2.20;0.85;;;;;;;19.38;40.09;99101.95;124538;1102;104204;-77
2023/10/28 07:47:39;;;;;;;4.83;1.00;;;;;;;19.39;39.82;99114.33;124459;1102;104089;-79
2023/10/28 07:50:09;;;;;;;1.43;0.87;;;;;;;19.43;39.98;99100.95;124526;1102;102052;-79
2023/10/28 07:52:37;;;;;;;2.60;1.03;;;;;;;19.47;40.11;99121.27;124560;1102;102091;-78
2023/10/28 07:55:07;;;;;;;1.33;0.90;;;;;;;19.47;39.38;99127.45;124548;1102;104255;-79
2023/10/28 07:57:36;;;;;;;2.07;1.10;;;;;;;19.53;39.43;99123.79;124567;1102;102252;-78
2023/10/28 08:00:11;;;;;;;2.60;1.03;;;;;;;19.57;39.48;99136.09;124423;1102;102061;-77
2023/10/28 08:02:45;;;;;;;1.53;1.13;;;;;;;19.61;39.28;99128.94;124545;1101;104182;-80
2023/10/28 08:05:14;;;;;;;4.10;1.30;;;;;;;19.67;39.79;99137.64;124633;1102;104262;-79
2023/10/28 08:07:43;;;;;;;3.13;1.17;;;;;;;19.75;39.16;99145.45;124667;1102;101980;-80
2023/10/28 08:10:12;;;;;;;1.17;0.90;;;;;;;19.77;37.31;99145.45;124563;1102;101936;-79
2023/10/28 08:12:41;;;;;;;1.17;0.80;;;;;;;19.74;38.89;99147.25;124447;1102;101852;-78
2023/10/28 08:15:14;;;;;;;1.90;1.00;;;;;;;19.85;38.39;99151.45;124633;1102;101906;-80
2023/10/28 08:17:42;;;;;;;3.17;1.00;;;;;;;19.84;38.20;99152.39;124680;1102;104247;-78
2023/10/28 08:20:15;;;;;;;3.80;1.20;;;;;;;19.91;38.29;99168.18;124635;1102;101875;-79
2023/10/28 08:22:44;;;;;;;3.97;1.20;;;;;;;20.00;38.06;99167.06;124669;1102;102048;-80
2023/10/28 08:25:15;;;;;;;4.00;1.00;;;;;;;20.06;38.15;99158.06;124583;1102;104208;-80
2023/10/28 08:27:44;;;;;;;2.70;0.93;;;;;;;20.09;37.53;99171.30;124606;1102;104076;-80
2023/10/28 08:30:16;;;;;;;2.63;1.00;;;;;;;20.14;38.59;99187.17;124397;1102;104179;-78
2023/10/28 08:32:46;;;;;;;4.23;1.30;;;;;;;20.22;38.13;99182.52;124484;1102;101846;-77
2023/10/28 08:35:16;;;;;;;1.10;1.00;;;;;;;20.22;38.21;99182.52;124745;1102;104208;-80
2023/10/28 08:37:44;;;;;;;4.50;1.30;;;;;;;20.14;37.27;99177.37;124476;1102;104313;-79
2023/10/28 08:40:14;;;;;;;1.97;1.00;;;;;;;20.14;38.18;99198.69;124600;1102;104233;-80
2023/10/28 08:42:44;;;;;;;3.57;1.07;;;;;;;20.15;37.80;99204.88;124679;1102;102080;-83
2023/10/28 08:45:14;;;;;;;0.80;0.80;;;;;;;20.14;37.07;99213.80;124630;1102;104197;-80
2023/10/28 08:47:44;;;;;;;1.13;0.97;;;;;;;20.21;37.25;99207.39;124614;1105;104277;-82
2023/10/28 08:50:17;;;;;;;1.23;0.80;;;;;;;20.32;37.13;99209.80;124621;1102;104341;-79
2023/10/28 08:52:48;;;;;;;1.80;1.37;;;;;;;20.39;37.00;99206.08;124622;1102;104210;-83
2023/10/28 08:55:20;;;;;;;3.10;1.27;;;;;;;20.46;37.03;99216.53;124745;1102;102240;-81
2023/10/28 08:57:51;;;;;;;3.63;1.20;;;;;;;20.49;36.59;99212.94;124763;1102;101840;-80
2023/10/28 09:00:22;;;;;;;1.47;1.00;;;;;;;20.48;37.46;99225.36;124641;1102;101961;-79
2023/10/28 09:02:51;;;;;;;2.23;1.20;;;;;;;20.57;36.88;99213.60;124615;1102;104339;-81
2023/10/28 09:05:21;;;;;;;1.83;1.10;;;;;;;20.65;37.75;99227.62;124534;1105;102086;-82
2023/10/28 09:07:54;;;;;;;5.53;1.40;;;;;;;20.67;37.37;99224.92;124647;1102;104233;-79
2023/10/28 09:10:25;;;;;;;1.25;1.10;;;;;;;20.66;36.88;99228.49;124740;1102;102132;-81
2023/10/28 09:12:55;;;;;;;3.50;1.50;;;;;;;20.73;36.58;99224.77;124567;1105;104265;-80
2023/10/28 09:15:24;;;;;;;3.97;1.47;;;;;;;20.79;36.32;99227.27;124873;1105;104185;-79
2023/10/28 09:17:52;;;;;;;2.73;1.33;;;;;;;20.85;36.17;99226.25;124490;1105;104342;-80
2023/10/28 09:20:21;;;;;;;3.60;1.20;;;;;;;20.93;36.23;99232.23;124658;1102;104217;-82
2023/10/28 09:22:50;;;;;;;2.10;1.00;;;;;;;20.95;35.96;99229.53;124645;1102;104172;-85
2023/10/28 09:25:18;;;;;;;1.17;1.03;;;;;;;21.00;36.93;99228.50;124541;1102;101964;-79
2023/10/28 09:27:47;;;;;;;2.00;1.10;;;;;;;21.06;36.12;99243.44;124601;1102;101897;-80
2023/10/28 09:30:17;;;;;;;1.57;1.10;;;;;;;21.04;35.38;99247.09;124640;1102;101918;-82
2023/10/28 09:32:46;;;;;;;4.23;1.53;;;;;;;21.02;35.95;99247.13;124650;1102;102129;-86
2023/10/28 09:35:15;;;;;;;1.63;1.30;;;;;;;21.00;34.51;99238.27;124773;1102;104223;-85
2023/10/28 09:37:44;;;;;;;2.53;1.23;;;;;;;20.98;34.82;99248.11;124738;1102;102048;-84
2023/10/28 09:40:14;;;;;;;2.33;1.33;;;;;;;20.89;34.96;99254.55;124771;1102;104105;-84
2023/10/28 09:42:44;;;;;;;1.47;1.30;;;;;;;20.81;35.13;99238.75;125507;1102;104208;-84
2023/10/28 09:45:13;;;;;;;3.30;1.50;;;;;;;20.83;34.66;99250.28;124706;1102;104198;-82
2023/10/28 09:47:52;;;;;;;1.30;1.03;;;;;;;20.86;34.48;99245.77;124761;1102;101817;-84
2023/10/28 09:50:22;;;;;;;3.35;1.30;;;;;;;20.96;34.30;99252.63;124743;1102;102145;-83
2023/10/28 09:52:54;;;;;;;2.05;1.10;;;;;;;20.95;34.96;99254.39;125674;1102;104227;-84
2023/10/28 09:55:27;;;;;;;2.87;1.33;;;;;;;20.97;34.73;99265.91;125502;1102;104176;-84
2023/10/28 09:58:07;;;;;;;1.40;1.30;;;;;;;21.06;34.80;99259.44;124894;1102;104452;-82
2023/10/28 10:00:37;;;;;;;1.40;1.20;;;;;;;21.07;33.92;99266.53;124852;1102;102035;-83
2023/10/28 10:03:26;;;;;;;1.63;1.30;;;;;;;21.12;34.87;99266.41;125206;1105;102159;-86
2023/10/28 10:05:55;;;;;;;2.57;1.47;;;;;;;21.21;34.97;99258.16;124705;1101;101821;-80
2023/10/28 10:08:24;;;;;;;1.40;1.10;;;;;;;21.20;34.73;99261.73;124736;1102;102092;-85
2023/10/28 10:10:57;;;;;;;3.47;1.63;;;;;;;21.21;34.89;99257.27;124821;1102;104242;-82
2023/10/28 10:13:26;;;;;;;3.60;1.33;;;;;;;21.17;34.91;99264.48;124856;1102;101933;-81
2023/10/28 10:16:00;;;;;;;3.23;1.20;;;;;;;21.17;34.29;99265.34;124788;1102;104192;-86
2023/10/28 10:18:38;;;;;;;3.57;1.30;;;;;;;21.27;35.07;99267.77;124821;1102;101897;-84
2023/10/28 10:21:09;;;;;;;3.13;1.50;;;;;;;21.28;35.25;99269.52;124632;1102;102129;-82
2023/10/28 10:23:45;;;;;;;2.47;1.27;;;;;;;21.17;33.83;99261.81;124688;1102;101856;-81
2023/10/28 10:26:25;;;;;;;2.57;1.50;;;;;;;21.14;34.44;99265.43;125393;1102;104181;-86
2023/10/28 10:28:55;;;;;;;2.30;1.50;;;;;;;21.19;34.02;99284.87;124757;1102;101920;-86
2023/10/28 10:31:29;;;;;;;2.70;1.37;;;;;;;21.19;34.15;99278.64;124718;1101;102275;-83
2023/10/28 10:34:07;;;;;;;;;;;;;;;21.23;34.31;99279.45;124639;1102;102141;-83
2023/10/28 10:36:41;;;;;;;2.20;1.27;;;;;;;21.19;34.54;99287.55;124606;1102;104217;-79
2023/10/28 10:39:15;;;;;;;3.67;1.40;;;;;;;21.15;34.26;99283.20;124679;1102;101977;-81
2023/10/28 10:41:47;;;;;;;1.83;1.37;;;;;;;21.18;34.15;99284.91;124559;1102;104169;-78
2023/10/28 10:44:36;;;;;;;1.73;1.17;;;;;;;21.24;34.21;99305.19;124701;1102;104178;-78
2023/10/28 10:47:08;;;;;;;2.37;1.43;;;;;;;21.14;34.35;99299.23;124358;1102;104188;-76
2023/10/28 10:49:38;;;;;;;2.35;1.60;;;;;;;21.03;34.13;99295.98;124265;1102;104165;-79
2023/10/28 10:52:08;;;;;;;2.47;1.50;;;;;;;21.05;34.00;99300.37;124373;1102;104322;-79
2023/10/28 10:54:40;;;;;;;3.83;1.43;;;;;;;21.07;33.44;99317.20;124576;1102;104309;-84
2023/10/28 10:57:09;;;;;;;2.47;1.37;;;;;;;21.04;33.94;99303.95;124715;1102;104070;-82
2023/10/28 10:59:39;;;;;;;1.93;1.40;;;;;;;21.05;34.52;99304.81;124887;1102;102049;-81
2023/10/28 11:02:10;;;;;;;2.50;1.35;;;;;;;21.07;34.30;99314.53;124527;1102;104208;-84
2023/10/28 11:04:39;;;;;;;2.53;1.50;;;;;;;21.10;34.54;99321.56;125921;1101;102938;-80
2023/10/28 11:07:08;;;;;;;2.27;1.40;;;;;;;21.15;34.38;99323.20;124641;1102;104246;-79
2023/10/28 11:09:38;;;;;;;2.70;1.60;;;;;;;21.14;34.05;99328.58;124420;1102;102185;-82
2023/10/28 11:12:07;;;;;;;7.03;1.90;;;;;;;21.18;33.66;99343.59;124644;1102;104181;-81
2023/10/28 11:14:36;;;;;;;1.23;1.13;;;;;;;21.21;33.81;99337.28;124628;1102;104178;-84
2023/10/28 11:17:05;;;;;;;4.57;1.63;;;;;;;21.16;34.06;99348.97;124597;1102;104297;-80
2023/10/28 11:19:33;;;;;;;3.10;1.63;;;;;;;21.15;34.18;99351.68;124614;1102;104226;-81
2023/10/28 11:22:02;;;;;;;2.23;1.30;;;;;;;21.13;33.82;99362.39;124566;1102;104214;-83
2023/10/28 11:24:35;;;;;;;2.47;1.20;;;;;;;21.08;34.30;99353.60;124543;1105;104341;-79
2023/10/28 11:27:04;;;;;;;2.60;1.40;;;;;;;21.00;33.18;99360.94;124493;1102;102376;-81
2023/10/28 11:29:37;;;;;;;4.40;1.50;;;;;;;20.98;33.60;99357.44;124481;1102;104379;-79